createdAt,value
2023-02-11T00:01:22.165Z,40.53
2023-02-11T00:03:48.567Z,41.49
2023-02-11T00:06:14.975Z,41.85
2023-02-11T00:08:41.384Z,40.90
2023-02-11T00:11:07.756Z,41.88
2023-02-11T00:13:34.162Z,41.05
2023-02-11T00:16:00.564Z,41.34
2023-02-11T00:18:26.974Z,41.51
2023-02-11T00:20:53.340Z,40.96
2023-02-11T00:23:19.690Z,41.42
2023-02-11T00:25:46.051Z,40.99
2023-02-11T00:28:12.500Z,40.91
2023-02-11T00:30:38.997Z,40.98
2023-02-11T00:33:05.450Z,41.35
2023-02-11T00:35:31.806Z,40.88
2023-02-11T00:37:58.242Z,41.23
2023-02-11T00:40:24.605Z,41.53
2023-02-11T00:42:51.024Z,41.18
2023-02-11T00:45:17.394Z,41.95
2023-02-11T00:47:43.781Z,42.55
2023-02-11T00:50:10.211Z,42.26
2023-02-11T00:52:36.615Z,41.76
2023-02-11T00:55:02.989Z,41.28
2023-02-11T00:57:29.388Z,41.46
2023-02-11T00:59:55.744Z,41.86
2023-02-11T01:02:22.095Z,42.25
2023-02-11T01:04:48.553Z,43.10
2023-02-11T01:07:14.937Z,42.20
2023-02-11T01:09:41.344Z,41.84
2023-02-11T01:12:07.773Z,42.37
2023-02-11T01:14:34.196Z,42.82
2023-02-11T01:17:00.538Z,42.96
2023-02-11T01:19:26.936Z,43.10
2023-02-11T01:21:53.294Z,43.21
2023-02-11T01:24:19.655Z,43.00
2023-02-11T01:26:46.037Z,42.81
2023-02-11T01:29:12.426Z,42.44
2023-02-11T01:31:38.944Z,43.15
2023-02-11T01:34:05.450Z,42.49
2023-02-11T01:36:31.884Z,42.47
2023-02-11T01:38:58.247Z,42.53
2023-02-11T01:41:24.641Z,42.33
2023-02-11T01:43:50.992Z,42.41
2023-02-11T01:46:17.477Z,42.61
2023-02-11T01:48:43.902Z,43.65
2023-02-11T01:51:10.300Z,43.54
2023-02-11T01:53:36.667Z,45.05
2023-02-11T01:56:03.055Z,46.18
2023-02-11T01:58:30.524Z,45.20
2023-02-11T02:00:56.874Z,45.96
2023-02-11T02:03:23.321Z,46.12
2023-02-11T02:05:49.921Z,45.67
2023-02-11T02:08:16.454Z,44.69
2023-02-11T02:10:42.842Z,43.71
2023-02-11T02:13:09.237Z,44.21
2023-02-11T02:15:35.599Z,44.85
2023-02-11T02:18:01.955Z,43.94
2023-02-11T02:20:28.360Z,43.03
2023-02-11T02:22:54.728Z,42.64
2023-02-11T02:25:21.116Z,42.78
2023-02-11T02:27:47.491Z,44.16
2023-02-11T02:30:13.886Z,44.78
2023-02-11T02:32:40.243Z,45.12
2023-02-11T02:35:06.674Z,45.13
2023-02-11T02:37:33.075Z,45.48
2023-02-11T02:39:59.435Z,46.85
2023-02-11T02:42:25.821Z,47.87
2023-02-11T02:44:52.249Z,47.66
2023-02-11T02:47:18.654Z,47.79
2023-02-11T02:49:45.012Z,46.57
2023-02-11T02:52:11.402Z,45.63
2023-02-11T02:54:37.801Z,47.37
2023-02-11T02:57:04.150Z,46.95
2023-02-11T02:59:30.538Z,47.64
2023-02-11T03:01:56.901Z,48.25
2023-02-11T03:04:23.247Z,48.18
2023-02-11T03:06:49.623Z,47.97
2023-02-11T03:09:15.981Z,48.04
2023-02-11T03:11:42.370Z,48.14
2023-02-11T03:14:08.788Z,46.82
2023-02-11T03:16:35.195Z,46.27
2023-02-11T03:19:01.616Z,45.31
2023-02-11T03:21:28.016Z,44.94
2023-02-11T03:23:54.375Z,44.97
2023-02-11T03:26:20.720Z,44.23
2023-02-11T03:28:47.082Z,44.47
2023-02-11T03:31:13.597Z,44.12
2023-02-11T03:33:40.019Z,44.68
2023-02-11T03:36:06.380Z,44.06
2023-02-11T03:38:32.779Z,44.72
2023-02-11T03:40:59.141Z,44.17
2023-02-11T03:43:25.524Z,44.63
2023-02-11T03:45:52.327Z,44.43
2023-02-11T03:48:18.985Z,44.48
2023-02-11T03:50:45.388Z,44.64
2023-02-11T03:53:11.783Z,44.49
2023-02-11T03:55:38.151Z,43.50
2023-02-11T03:58:04.542Z,44.15
2023-02-11T04:00:30.903Z,43.75
2023-02-11T04:02:57.311Z,44.18
2023-02-11T04:05:23.718Z,43.90
2023-02-11T04:07:50.075Z,44.55
2023-02-11T04:10:16.454Z,43.96
2023-02-11T04:12:42.852Z,43.60
2023-02-11T04:15:09.211Z,43.95
2023-02-11T04:17:35.647Z,44.02
2023-02-11T04:20:02.067Z,43.74
2023-02-11T04:22:28.458Z,43.74
2023-02-11T04:24:54.860Z,43.83
2023-02-11T04:27:21.261Z,43.90
2023-02-11T04:29:47.611Z,43.89
2023-02-11T04:32:13.987Z,43.56
2023-02-11T04:34:40.429Z,43.83
2023-02-11T04:37:06.819Z,43.93
2023-02-11T04:39:33.230Z,44.17
2023-02-11T04:41:59.600Z,44.25
2023-02-11T04:44:25.946Z,43.76
2023-02-11T04:46:52.299Z,44.66
2023-02-11T04:49:18.644Z,44.57
2023-02-11T04:51:46.510Z,45.97
2023-02-11T04:54:14.634Z,45.70
2023-02-11T04:56:41.032Z,45.05
2023-02-11T04:59:07.387Z,44.36
2023-02-11T05:01:33.835Z,45.17
2023-02-11T05:04:00.291Z,45.87
2023-02-11T05:06:26.716Z,46.48
2023-02-11T05:08:53.087Z,46.27
2023-02-11T05:11:19.449Z,45.57
2023-02-11T05:13:45.863Z,44.87
2023-02-11T05:16:12.266Z,44.73
2023-02-11T05:18:38.637Z,44.33
2023-02-11T05:21:05.023Z,44.40
2023-02-11T05:23:31.380Z,44.35
2023-02-11T05:25:57.754Z,44.21
2023-02-11T05:28:24.174Z,44.76
2023-02-11T05:30:50.577Z,44.66
2023-02-11T05:33:16.960Z,44.24
2023-02-11T05:35:43.339Z,45.49
2023-02-11T05:38:09.714Z,46.62
2023-02-11T05:40:36.064Z,45.34
2023-02-11T05:43:02.448Z,46.43
2023-02-11T05:45:28.864Z,46.94
2023-02-11T05:47:55.252Z,48.12
2023-02-11T05:50:21.616Z,48.64
2023-02-11T05:52:48.007Z,49.66
2023-02-11T05:55:14.480Z,47.91
2023-02-11T05:57:40.875Z,49.00
2023-02-11T06:00:07.246Z,47.66
2023-02-11T06:02:33.613Z,47.07
2023-02-11T06:05:00.056Z,46.57
2023-02-11T06:07:26.479Z,46.66
2023-02-11T06:09:52.844Z,47.01
2023-02-11T06:12:19.182Z,47.18
2023-02-11T06:14:45.544Z,46.78
2023-02-11T06:17:13.971Z,47.71
2023-02-11T06:19:41.682Z,48.11
2023-02-11T06:22:08.122Z,47.59
2023-02-11T06:24:58.481Z,47.01
2023-02-11T06:27:20.967Z,47.43
2023-02-11T06:29:47.306Z,45.98
2023-02-11T06:32:36.989Z,47.22
2023-02-11T06:35:00.046Z,46.63
2023-02-11T06:37:26.400Z,47.33
2023-02-11T06:39:52.758Z,49.89
2023-02-11T06:42:19.124Z,49.07
2023-02-11T06:44:45.513Z,49.01
2023-02-11T06:47:11.914Z,47.54
2023-02-11T06:49:38.327Z,49.10
2023-02-11T06:52:04.712Z,48.79
2023-02-11T06:54:31.077Z,48.71
2023-02-11T06:56:57.474Z,48.48
2023-02-11T06:59:23.830Z,46.81
2023-02-11T07:01:50.249Z,47.26
2023-02-11T07:04:16.615Z,47.19
2023-02-11T07:06:42.963Z,46.78
2023-02-11T07:09:09.364Z,46.49
2023-02-11T07:11:35.725Z,46.05
2023-02-11T07:14:02.136Z,46.14
2023-02-11T07:16:28.573Z,46.78
2023-02-11T07:18:55.027Z,47.15
2023-02-11T07:21:21.434Z,49.60
2023-02-11T07:23:47.795Z,50.26
2023-02-11T07:26:14.192Z,49.06
2023-02-11T07:28:40.596Z,50.10
2023-02-11T07:31:07.107Z,49.24
2023-02-11T07:33:33.588Z,49.34
2023-02-11T07:35:59.955Z,50.58
2023-02-11T07:38:26.355Z,51.92
2023-02-11T07:40:52.707Z,51.57
2023-02-11T07:43:19.097Z,52.11
2023-02-11T07:45:45.456Z,53.65
2023-02-11T07:48:11.794Z,52.87
2023-02-11T07:50:38.204Z,52.40
2023-02-11T07:53:04.573Z,52.74
2023-02-11T07:55:30.972Z,51.98
2023-02-11T07:57:57.339Z,52.31
2023-02-11T08:00:23.709Z,52.57
2023-02-11T08:02:50.065Z,51.76
2023-02-11T08:05:16.457Z,51.24
2023-02-11T08:07:42.859Z,51.68
2023-02-11T08:10:09.227Z,50.56
2023-02-11T08:12:35.589Z,50.76
2023-02-11T08:15:01.979Z,51.29
2023-02-11T08:17:28.355Z,51.43
2023-02-11T08:19:54.740Z,51.69
2023-02-11T08:22:21.092Z,50.65
2023-02-11T08:24:47.496Z,51.86
2023-02-11T08:27:13.907Z,51.48
2023-02-11T08:29:40.274Z,50.69
2023-02-11T08:32:06.690Z,51.72
2023-02-11T08:34:33.115Z,50.55
2023-02-11T08:36:59.488Z,50.27
2023-02-11T08:39:25.828Z,49.95
2023-02-11T08:41:52.177Z,49.84
2023-02-11T08:44:18.607Z,50.30
2023-02-11T08:46:45.005Z,49.79
2023-02-11T08:49:11.500Z,49.83
2023-02-11T08:51:37.920Z,49.44
2023-02-11T08:54:04.281Z,51.30
2023-02-11T08:56:30.635Z,51.00
2023-02-11T08:58:56.977Z,50.91
2023-02-11T09:01:23.399Z,50.17
2023-02-11T09:03:49.780Z,50.33
2023-02-11T09:06:16.178Z,50.23
2023-02-11T09:08:45.316Z,51.02
2023-02-11T09:11:12.629Z,49.77
2023-02-11T09:13:39.016Z,50.96
2023-02-11T09:16:05.385Z,53.20
2023-02-11T09:18:31.785Z,53.03
2023-02-11T09:20:58.149Z,53.95
2023-02-11T09:23:24.534Z,52.95
2023-02-11T09:25:51.171Z,52.10
2023-02-11T09:28:17.732Z,53.14
2023-02-11T09:30:44.231Z,52.21
2023-02-11T09:33:10.654Z,51.90
2023-02-11T09:35:39.358Z,49.85
2023-02-11T09:38:05.767Z,48.86
2023-02-11T09:40:32.130Z,48.46
2023-02-11T09:43:03.008Z,49.69
2023-02-11T09:45:30.508Z,49.92
2023-02-11T09:47:56.913Z,48.33
2023-02-11T09:50:23.267Z,48.01
2023-02-11T09:52:49.713Z,46.67
2023-02-11T09:55:16.136Z,47.80
2023-02-11T09:57:42.542Z,46.29
2023-02-11T10:00:08.942Z,45.41
2023-02-11T10:02:35.336Z,45.40
2023-02-11T10:05:01.740Z,46.20
2023-02-11T10:07:28.151Z,46.19
2023-02-11T10:09:54.560Z,46.39
2023-02-11T10:12:20.922Z,46.91
2023-02-11T10:14:47.325Z,47.01
2023-02-11T10:17:13.732Z,46.36
2023-02-11T10:19:40.115Z,46.13
2023-02-11T10:22:06.695Z,44.83
2023-02-11T10:24:33.050Z,45.40
2023-02-11T10:26:59.440Z,46.00
2023-02-11T10:29:25.803Z,45.73
2023-02-11T10:31:52.226Z,44.94
2023-02-11T10:34:18.636Z,46.54
2023-02-11T10:36:44.993Z,45.87
2023-02-11T10:39:11.385Z,44.36
2023-02-11T10:41:37.783Z,44.13
2023-02-11T10:44:04.193Z,44.34
2023-02-11T10:46:30.650Z,44.64
2023-02-11T10:48:57.074Z,44.02
2023-02-11T10:51:23.587Z,42.59
2023-02-11T10:53:49.969Z,42.78
2023-02-11T10:56:16.361Z,41.81
2023-02-11T10:58:42.903Z,41.53
2023-02-11T11:01:23.515Z,41.13
2023-02-11T11:03:50.913Z,41.24
2023-02-11T11:06:17.299Z,41.04
2023-02-11T11:08:43.660Z,41.63
2023-02-11T11:11:10.109Z,42.14
2023-02-11T11:13:36.521Z,41.85
2023-02-11T11:16:02.985Z,43.31
2023-02-11T11:18:29.401Z,45.46
2023-02-11T11:20:55.751Z,45.00
2023-02-11T11:23:22.133Z,45.48
2023-02-11T11:25:48.489Z,44.25
2023-02-11T11:28:14.902Z,43.79
2023-02-11T11:30:41.385Z,44.54
2023-02-11T11:33:07.774Z,42.96
2023-02-11T11:35:34.119Z,43.89
2023-02-11T11:38:01.956Z,44.15
2023-02-11T11:40:28.541Z,43.27
2023-02-11T11:42:54.908Z,43.69
2023-02-11T11:45:21.289Z,44.16
2023-02-11T11:47:47.684Z,44.01
2023-02-11T11:50:14.045Z,43.51
2023-02-11T11:52:40.443Z,43.41
2023-02-11T11:55:06.870Z,43.06
2023-02-11T11:57:33.241Z,43.33
2023-02-11T11:59:59.636Z,42.68
2023-02-11T12:02:26.150Z,43.59
2023-02-11T12:04:52.532Z,42.52
2023-02-11T12:07:18.884Z,43.41
2023-02-11T12:09:45.249Z,45.23
2023-02-11T12:12:11.650Z,45.36
2023-02-11T12:14:38.016Z,45.92
2023-02-11T12:17:04.363Z,44.95
2023-02-11T12:19:30.717Z,46.71
2023-02-11T12:21:57.110Z,45.04
2023-02-11T12:24:23.513Z,44.56
2023-02-11T12:26:49.974Z,43.80
2023-02-11T12:29:16.330Z,43.02
2023-02-11T12:31:42.691Z,45.48
2023-02-11T12:34:09.085Z,46.31
2023-02-11T12:36:35.477Z,45.94
2023-02-11T12:39:01.885Z,45.55
2023-02-11T12:41:28.264Z,44.12
2023-02-11T12:43:54.654Z,43.56
2023-02-11T12:46:21.155Z,42.18
2023-02-11T12:48:47.611Z,41.63
2023-02-11T12:51:13.979Z,44.62
2023-02-11T12:53:40.346Z,45.08
2023-02-11T12:56:06.819Z,43.73
2023-02-11T12:58:44.650Z,43.25
2023-02-11T13:01:12.059Z,41.88
2023-02-11T13:03:38.452Z,43.32
2023-02-11T13:06:04.807Z,44.07
2023-02-11T13:08:31.232Z,43.04
2023-02-11T13:10:57.584Z,42.53
2023-02-11T13:13:24.005Z,42.68
2023-02-11T13:15:50.368Z,41.43
2023-02-11T13:18:19.015Z,40.94
2023-02-11T13:20:45.592Z,42.44
2023-02-11T13:23:11.948Z,42.86
2023-02-11T13:25:38.294Z,43.01
2023-02-11T13:28:04.698Z,43.12
2023-02-11T13:30:31.104Z,44.22
2023-02-11T13:32:57.485Z,43.21
2023-02-11T13:35:23.841Z,43.17
2023-02-11T13:37:50.233Z,41.85
2023-02-11T13:40:16.601Z,41.76
2023-02-11T13:42:45.518Z,41.49
2023-02-11T13:45:11.908Z,41.07
2023-02-11T13:47:38.323Z,41.22
2023-02-11T13:50:04.708Z,40.81
2023-02-11T13:52:31.100Z,41.64
2023-02-11T13:54:57.459Z,41.31
2023-02-11T13:57:23.861Z,41.12
2023-02-11T13:59:50.224Z,39.79
2023-02-11T14:02:16.622Z,39.83
2023-02-11T14:04:43.074Z,40.88
2023-02-11T14:07:09.476Z,39.17
2023-02-11T14:09:35.887Z,40.23
2023-02-11T14:12:02.262Z,40.67
2023-02-11T14:14:28.660Z,39.29
2023-02-11T14:16:55.095Z,39.02
2023-02-11T14:19:21.504Z,39.51
2023-02-11T14:21:47.847Z,39.33
2023-02-11T14:24:14.233Z,39.56
2023-02-11T14:26:40.741Z,40.73
2023-02-11T14:29:07.129Z,39.68
2023-02-11T14:31:33.635Z,39.33
2023-02-11T14:34:00.125Z,38.92
2023-02-11T14:36:26.513Z,40.37
2023-02-11T14:38:52.921Z,39.11
2023-02-11T14:41:19.328Z,38.96
2023-02-11T14:43:45.731Z,38.87
2023-02-11T14:46:12.126Z,38.73
2023-02-11T14:48:38.518Z,38.20
2023-02-11T14:51:04.950Z,37.74
2023-02-11T14:53:31.320Z,38.27
2023-02-11T14:55:57.776Z,37.68
2023-02-11T14:58:24.198Z,38.37
2023-02-11T15:00:50.789Z,38.45
2023-02-11T15:03:17.384Z,38.62
2023-02-11T15:05:43.773Z,37.40
2023-02-11T15:08:10.163Z,36.48
2023-02-11T15:10:36.604Z,36.60
2023-02-11T15:13:03.032Z,35.73
2023-02-11T15:15:29.408Z,36.55
2023-02-11T15:17:55.767Z,36.77
2023-02-11T15:20:22.158Z,37.04
2023-02-11T15:22:48.523Z,35.71
2023-02-11T15:25:14.942Z,36.88
2023-02-11T15:27:41.333Z,35.38
2023-02-11T15:30:07.718Z,37.04
2023-02-11T15:32:34.168Z,36.70
2023-02-11T15:35:00.621Z,37.38
2023-02-11T15:37:26.984Z,35.25
2023-02-11T15:39:53.397Z,35.28
2023-02-11T15:42:19.805Z,36.84
2023-02-11T15:44:46.537Z,35.08
2023-02-11T15:47:14.366Z,35.24
2023-02-11T15:49:40.753Z,36.25
2023-02-11T15:52:07.353Z,36.08
2023-02-11T15:54:33.716Z,34.96
2023-02-11T15:57:00.152Z,35.50
2023-02-11T15:59:26.546Z,35.51
2023-02-11T16:01:52.949Z,36.73
2023-02-11T16:04:19.364Z,38.01
2023-02-11T16:06:45.820Z,38.31
2023-02-11T16:09:12.172Z,37.55
2023-02-11T16:11:38.564Z,38.46
2023-02-11T16:14:07.021Z,40.48
2023-02-11T16:16:33.628Z,39.89
2023-02-11T16:19:05.296Z,39.72
2023-02-11T16:21:32.266Z,40.79
2023-02-11T16:23:58.672Z,42.04
2023-02-11T16:26:25.046Z,41.71
2023-02-11T16:28:51.437Z,42.87
2023-02-11T16:31:17.864Z,42.38
2023-02-11T16:33:44.267Z,41.75
2023-02-11T16:36:10.659Z,41.85
2023-02-11T16:38:37.081Z,42.79
2023-02-11T16:41:03.482Z,42.50
2023-02-11T16:43:29.848Z,42.73
2023-02-11T16:45:56.175Z,44.00
2023-02-11T16:48:22.682Z,44.17
2023-02-11T16:50:51.483Z,44.42
2023-02-11T16:53:19.601Z,45.02
2023-02-11T16:55:45.998Z,44.00
2023-02-11T16:58:12.376Z,44.29
2023-02-11T17:00:38.849Z,44.47
2023-02-11T17:03:05.296Z,44.46
2023-02-11T17:05:37.840Z,44.39
2023-02-11T17:08:09.179Z,44.69
2023-02-11T17:10:35.589Z,43.77
2023-02-11T17:13:01.971Z,44.21
2023-02-11T17:15:28.318Z,44.79
2023-02-11T17:17:54.745Z,44.69
2023-02-11T17:20:21.144Z,43.89
2023-02-11T17:22:47.547Z,44.42
2023-02-11T17:25:13.947Z,44.96
2023-02-11T17:27:40.351Z,45.08
2023-02-11T17:30:06.756Z,45.27
2023-02-11T17:32:33.112Z,45.69
2023-02-11T17:34:59.513Z,44.44
2023-02-11T17:37:26.019Z,44.57
2023-02-11T17:39:52.372Z,45.06
2023-02-11T17:42:18.723Z,44.43
2023-02-11T17:44:45.116Z,45.33
2023-02-11T17:47:11.492Z,45.93
2023-02-11T17:49:37.876Z,45.88
2023-02-11T17:52:04.239Z,45.71
2023-02-11T17:54:30.666Z,45.76
2023-02-11T17:56:58.460Z,45.34
2023-02-11T17:59:25.039Z,45.40
2023-02-11T18:01:51.443Z,45.20
2023-02-11T18:04:17.992Z,45.32
2023-02-11T18:06:44.458Z,45.74
2023-02-11T18:09:10.807Z,45.78
2023-02-11T18:11:37.206Z,46.13
2023-02-11T18:14:03.608Z,46.15
2023-02-11T18:16:30.062Z,45.56
2023-02-11T18:18:56.476Z,45.69
2023-02-11T18:21:22.904Z,45.43
2023-02-11T18:23:49.268Z,46.12
2023-02-11T18:26:15.661Z,45.83
2023-02-11T18:28:45.306Z,45.76
2023-02-11T18:31:12.327Z,45.81
2023-02-11T18:33:38.704Z,45.50
2023-02-11T18:36:05.133Z,44.79
2023-02-11T18:38:31.497Z,45.92
2023-02-11T18:40:57.858Z,46.20
2023-02-11T18:43:24.246Z,45.32
2023-02-11T18:45:51.177Z,45.78
2023-02-11T18:48:17.813Z,45.34
2023-02-11T18:50:44.169Z,45.68
2023-02-11T18:53:10.525Z,46.07
2023-02-11T18:55:36.866Z,45.40
2023-02-11T18:58:03.269Z,44.69
2023-02-11T19:00:29.623Z,44.21
2023-02-11T19:02:55.968Z,45.99
2023-02-11T19:05:22.366Z,44.06
2023-02-11T19:07:48.762Z,45.15
2023-02-11T19:10:15.360Z,44.63
2023-02-11T19:12:41.791Z,43.91
2023-02-11T19:15:08.147Z,43.91
2023-02-11T19:17:34.498Z,44.63
2023-02-11T19:20:00.838Z,44.55
2023-02-11T19:22:27.191Z,45.23
2023-02-11T19:24:53.539Z,44.78
2023-02-11T19:27:19.885Z,44.65
2023-02-11T19:29:46.266Z,44.13
2023-02-11T19:32:12.675Z,45.08
2023-02-11T19:34:39.035Z,45.08
2023-02-11T19:37:05.426Z,44.83
2023-02-11T19:39:31.781Z,45.49
2023-02-11T19:41:58.155Z,46.74
2023-02-11T19:44:24.507Z,45.19
2023-02-11T19:46:50.896Z,44.90
2023-02-11T19:49:17.255Z,44.16
2023-02-11T19:51:43.617Z,45.43
2023-02-11T19:54:10.032Z,44.77
2023-02-11T19:56:36.399Z,44.08
2023-02-11T19:59:02.748Z,43.51
2023-02-11T20:01:29.208Z,42.95
2023-02-11T20:03:55.651Z,42.88
2023-02-11T20:06:22.057Z,42.89
2023-02-11T20:08:48.456Z,42.02
2023-02-11T20:11:14.857Z,42.38
2023-02-11T20:13:41.218Z,42.04
2023-02-11T20:16:07.633Z,41.88
2023-02-11T20:18:34.025Z,42.14
2023-02-11T20:21:00.387Z,42.43
2023-02-11T20:23:26.737Z,42.15
2023-02-11T20:25:53.439Z,41.86
2023-02-11T20:28:20.084Z,41.44
2023-02-11T20:30:46.528Z,41.78
2023-02-11T20:33:12.987Z,41.57
2023-02-11T20:35:39.334Z,41.50
2023-02-11T20:38:05.716Z,41.03
2023-02-11T20:40:32.104Z,41.33
2023-02-11T20:42:58.461Z,41.11
2023-02-11T20:45:24.844Z,41.00
2023-02-11T20:47:51.202Z,40.82
2023-02-11T20:50:17.546Z,41.29
2023-02-11T20:52:43.948Z,41.03
2023-02-11T20:55:10.369Z,40.91
2023-02-11T20:57:36.780Z,40.93
2023-02-11T21:00:03.231Z,41.33
2023-02-11T21:02:29.591Z,41.85
2023-02-11T21:04:55.973Z,41.72
2023-02-11T21:07:22.376Z,41.66
2023-02-11T21:09:48.743Z,41.54
2023-02-11T21:12:15.121Z,41.08
2023-02-11T21:14:41.486Z,40.73
2023-02-11T21:17:07.831Z,41.04
2023-02-11T21:19:34.191Z,41.63
2023-02-11T21:22:00.542Z,41.46
2023-02-11T21:24:26.938Z,41.32
2023-02-11T21:26:53.308Z,41.67
2023-02-11T21:29:19.720Z,42.13
2023-02-11T21:31:46.135Z,42.73
2023-02-11T21:34:12.564Z,42.54
2023-02-11T21:36:39.102Z,42.69
2023-02-11T21:39:05.473Z,43.38
2023-02-11T21:41:31.874Z,43.86
2023-02-11T21:43:58.287Z,43.95
2023-02-11T21:46:24.727Z,43.69
2023-02-11T21:48:51.103Z,43.71
2023-02-11T21:51:17.483Z,42.98
2023-02-11T21:53:43.813Z,43.74
2023-02-11T21:56:10.166Z,43.40
2023-02-11T21:58:36.558Z,43.67
2023-02-11T22:01:03.015Z,43.52
2023-02-11T22:03:29.406Z,43.93
2023-02-11T22:05:56.114Z,43.77
2023-02-11T22:08:22.650Z,42.91
2023-02-11T22:10:49.002Z,43.39
2023-02-11T22:13:15.359Z,43.18
2023-02-11T22:15:41.757Z,42.59
2023-02-11T22:18:08.124Z,42.81
2023-02-11T22:20:34.508Z,42.66
2023-02-11T22:23:00.907Z,41.44
2023-02-11T22:25:27.314Z,41.07
2023-02-11T22:27:53.701Z,40.92
2023-02-11T22:30:20.097Z,40.80
2023-02-11T22:32:46.499Z,40.30
2023-02-11T22:35:12.959Z,40.29
2023-02-11T22:37:39.355Z,40.39
2023-02-11T22:40:05.705Z,40.41
2023-02-11T22:42:32.069Z,40.66
2023-02-11T22:44:58.407Z,40.62
2023-02-11T22:47:24.827Z,42.57
2023-02-11T22:49:51.233Z,42.30
2023-02-11T22:52:17.636Z,42.26
2023-02-11T22:54:44.000Z,42.00
2023-02-11T22:57:10.394Z,42.13
2023-02-11T22:59:36.776Z,41.08
2023-02-11T23:02:03.285Z,42.01
2023-02-11T23:04:29.748Z,41.72
2023-02-11T23:06:56.102Z,41.74
2023-02-11T23:09:22.514Z,41.60
2023-02-11T23:11:48.902Z,41.41
2023-02-11T23:14:15.294Z,41.49
2023-02-11T23:16:41.780Z,41.81
2023-02-11T23:19:08.199Z,41.22
2023-02-11T23:21:34.588Z,40.77
2023-02-11T23:24:00.971Z,40.68
2023-02-11T23:26:27.354Z,40.32
2023-02-11T23:28:53.690Z,39.57
2023-02-11T23:31:20.113Z,39.33
2023-02-11T23:33:46.544Z,38.82
2023-02-11T23:36:12.895Z,38.45
2023-02-11T23:38:39.252Z,38.55
2023-02-11T23:41:05.610Z,38.40
2023-02-11T23:43:31.997Z,37.62
2023-02-11T23:45:58.493Z,38.55
2023-02-11T23:48:25.023Z,39.23
2023-02-11T23:50:51.416Z,39.02
2023-02-11T23:53:17.844Z,39.27
2023-02-11T23:55:44.247Z,38.96
2023-02-11T23:58:10.592Z,40.11
